sensor_id;sensor_type;location;lat;lon;timestamp;pressure;altitude;pressure_sealevel;temperature
66372;BMP180;53168;51.146;17.120;2022-07-10T00:02:19;100382.00;;;16.40
66372;BMP180;53168;51.146;17.120;2022-07-10T00:04:52;100380.80;;;16.40
66372;BMP180;53168;51.146;17.120;2022-07-10T00:07:26;100383.20;;;16.30
66372;BMP180;53168;51.146;17.120;2022-07-10T00:09:59;100374.00;;;16.30
66372;BMP180;53168;51.146;17.120;2022-07-10T00:12:32;100376.00;;;16.28
66372;BMP180;53168;51.146;17.120;2022-07-10T00:15:08;100386.40;;;16.22
66372;BMP180;53168;51.146;17.120;2022-07-10T00:17:41;100381.20;;;16.20
66372;BMP180;53168;51.146;17.120;2022-07-10T00:20:16;100376.60;;;16.20
66372;BMP180;53168;51.146;17.120;2022-07-10T00:22:50;100379.00;;;16.10
66372;BMP180;53168;51.146;17.120;2022-07-10T00:25:27;100377.00;;;16.10
66372;BMP180;53168;51.146;17.120;2022-07-10T00:28:02;100376.80;;;16.10
66372;BMP180;53168;51.146;17.120;2022-07-10T00:30:39;100373.40;;;16.00
66372;BMP180;53168;51.146;17.120;2022-07-10T00:33:20;100377.00;;;15.92
66372;BMP180;53168;51.146;17.120;2022-07-10T00:35:53;100367.40;;;15.96
66372;BMP180;53168;51.146;17.120;2022-07-10T00:38:27;100368.40;;;15.90
66372;BMP180;53168;51.146;17.120;2022-07-10T00:41:00;100365.00;;;15.86
66372;BMP180;53168;51.146;17.120;2022-07-10T00:43:54;100364.60;;;15.80
66372;BMP180;53168;51.146;17.120;2022-07-10T00:46:30;100361.00;;;15.70
66372;BMP180;53168;51.146;17.120;2022-07-10T00:49:04;100366.40;;;15.76
66372;BMP180;53168;51.146;17.120;2022-07-10T00:51:38;100368.80;;;15.70
66372;BMP180;53168;51.146;17.120;2022-07-10T00:54:11;100372.60;;;15.70
66372;BMP180;53168;51.146;17.120;2022-07-10T00:56:45;100371.60;;;15.60
66372;BMP180;53168;51.146;17.120;2022-07-10T00:59:18;100372.60;;;15.60
66372;BMP180;53168;51.146;17.120;2022-07-10T01:01:53;100372.20;;;15.60
66372;BMP180;53168;51.146;17.120;2022-07-10T01:04:27;100367.60;;;15.60
66372;BMP180;53168;51.146;17.120;2022-07-10T01:07:00;100361.80;;;15.60
66372;BMP180;53168;51.146;17.120;2022-07-10T01:09:34;100364.40;;;15.60
66372;BMP180;53168;51.146;17.120;2022-07-10T01:12:09;100361.00;;;15.50
66372;BMP180;53168;51.146;17.120;2022-07-10T01:14:44;100364.80;;;15.52
66372;BMP180;53168;51.146;17.120;2022-07-10T01:17:19;100362.80;;;15.62
66372;BMP180;53168;51.146;17.120;2022-07-10T01:19:52;100357.80;;;15.70
66372;BMP180;53168;51.146;17.120;2022-07-10T01:22:25;100357.40;;;15.80
66372;BMP180;53168;51.146;17.120;2022-07-10T01:24:59;100357.80;;;15.80
66372;BMP180;53168;51.146;17.120;2022-07-10T01:27:32;100364.20;;;15.70
66372;BMP180;53168;51.146;17.120;2022-07-10T01:30:09;100366.60;;;15.58
66372;BMP180;53168;51.146;17.120;2022-07-10T01:32:43;100370.00;;;15.40
66372;BMP180;53168;51.146;17.120;2022-07-10T01:35:16;100367.60;;;15.30
66372;BMP180;53168;51.146;17.120;2022-07-10T01:37:50;100371.80;;;15.20
66372;BMP180;53168;51.146;17.120;2022-07-10T01:40:24;100372.60;;;15.20
66372;BMP180;53168;51.146;17.120;2022-07-10T01:42:57;100378.40;;;15.10
66372;BMP180;53168;51.146;17.120;2022-07-10T01:45:32;100369.60;;;15.00
66372;BMP180;53168;51.146;17.120;2022-07-10T01:48:06;100366.40;;;14.92
66372;BMP180;53168;51.146;17.120;2022-07-10T01:50:40;100362.80;;;14.90
66372;BMP180;53168;51.146;17.120;2022-07-10T01:53:13;100364.00;;;14.90
66372;BMP180;53168;51.146;17.120;2022-07-10T01:55:46;100360.80;;;14.90
66372;BMP180;53168;51.146;17.120;2022-07-10T01:58:20;100357.60;;;14.86
66372;BMP180;53168;51.146;17.120;2022-07-10T02:00:53;100358.60;;;14.80
66372;BMP180;53168;51.146;17.120;2022-07-10T02:03:26;100362.80;;;14.76
66372;BMP180;53168;51.146;17.120;2022-07-10T02:06:17;100365.60;;;14.70
66372;BMP180;53168;51.146;17.120;2022-07-10T02:08:51;100367.80;;;14.70
66372;BMP180;53168;51.146;17.120;2022-07-10T02:11:24;100368.60;;;14.70
66372;BMP180;53168;51.146;17.120;2022-07-10T02:13:57;100369.00;;;14.70
66372;BMP180;53168;51.146;17.120;2022-07-10T02:16:31;100369.80;;;14.70
66372;BMP180;53168;51.146;17.120;2022-07-10T02:19:04;100370.40;;;14.60
66372;BMP180;53168;51.146;17.120;2022-07-10T02:21:38;100367.40;;;14.60
66372;BMP180;53168;51.146;17.120;2022-07-10T02:24:11;100374.20;;;14.60
66372;BMP180;53168;51.146;17.120;2022-07-10T02:26:45;100373.80;;;14.62
66372;BMP180;53168;51.146;17.120;2022-07-10T02:29:18;100368.40;;;14.70
66372;BMP180;53168;51.146;17.120;2022-07-10T02:31:52;100368.20;;;14.70
66372;BMP180;53168;51.146;17.120;2022-07-10T02:34:25;100365.00;;;14.70
66372;BMP180;53168;51.146;17.120;2022-07-10T02:36:58;100362.80;;;14.70
66372;BMP180;53168;51.146;17.120;2022-07-10T02:39:32;100365.80;;;14.70
66372;BMP180;53168;51.146;17.120;2022-07-10T02:42:07;100364.80;;;14.80
66372;BMP180;53168;51.146;17.120;2022-07-10T02:44:40;100366.40;;;14.80
66372;BMP180;53168;51.146;17.120;2022-07-10T02:47:13;100363.20;;;14.80
66372;BMP180;53168;51.146;17.120;2022-07-10T02:49:47;100360.60;;;14.90
66372;BMP180;53168;51.146;17.120;2022-07-10T02:52:20;100364.20;;;15.00
66372;BMP180;53168;51.146;17.120;2022-07-10T02:54:53;100366.20;;;15.00
66372;BMP180;53168;51.146;17.120;2022-07-10T02:57:27;100371.20;;;15.00
66372;BMP180;53168;51.146;17.120;2022-07-10T03:00:01;100365.20;;;15.00
66372;BMP180;53168;51.146;17.120;2022-07-10T03:02:34;100364.60;;;14.90
66372;BMP180;53168;51.146;17.120;2022-07-10T03:05:10;100364.80;;;14.92
66372;BMP180;53168;51.146;17.120;2022-07-10T03:07:43;100363.60;;;15.00
66372;BMP180;53168;51.146;17.120;2022-07-10T03:10:16;100371.80;;;15.00
66372;BMP180;53168;51.146;17.120;2022-07-10T03:12:50;100370.20;;;15.00
66372;BMP180;53168;51.146;17.120;2022-07-10T03:15:23;100369.00;;;15.00
66372;BMP180;53168;51.146;17.120;2022-07-10T03:17:56;100365.00;;;15.00
66372;BMP180;53168;51.146;17.120;2022-07-10T03:20:30;100366.40;;;15.00
66372;BMP180;53168;51.146;17.120;2022-07-10T03:23:03;100366.40;;;15.00
66372;BMP180;53168;51.146;17.120;2022-07-10T03:25:37;100363.20;;;15.00
66372;BMP180;53168;51.146;17.120;2022-07-10T03:28:10;100362.40;;;15.00
66372;BMP180;53168;51.146;17.120;2022-07-10T03:30:44;100360.00;;;15.00
66372;BMP180;53168;51.146;17.120;2022-07-10T03:33:17;100366.60;;;15.00
66372;BMP180;53168;51.146;17.120;2022-07-10T03:35:50;100369.20;;;15.10
66372;BMP180;53168;51.146;17.120;2022-07-10T03:38:24;100365.60;;;15.10
66372;BMP180;53168;51.146;17.120;2022-07-10T03:40:57;100361.40;;;15.10
66372;BMP180;53168;51.146;17.120;2022-07-10T03:43:30;100361.40;;;15.00
66372;BMP180;53168;51.146;17.120;2022-07-10T03:46:04;100364.20;;;15.00
66372;BMP180;53168;51.146;17.120;2022-07-10T03:48:38;100364.80;;;15.00
66372;BMP180;53168;51.146;17.120;2022-07-10T03:51:12;100365.00;;;15.00
66372;BMP180;53168;51.146;17.120;2022-07-10T03:53:45;100365.20;;;15.00
66372;BMP180;53168;51.146;17.120;2022-07-10T03:56:18;100366.40;;;15.00
66372;BMP180;53168;51.146;17.120;2022-07-10T03:59:06;100368.20;;;15.06
66372;BMP180;53168;51.146;17.120;2022-07-10T04:01:39;100366.40;;;15.10
66372;BMP180;53168;51.146;17.120;2022-07-10T04:04:12;100366.80;;;15.10
66372;BMP180;53168;51.146;17.120;2022-07-10T04:06:46;100374.00;;;15.20
66372;BMP180;53168;51.146;17.120;2022-07-10T04:09:19;100373.80;;;15.20
66372;BMP180;53168;51.146;17.120;2022-07-10T04:11:52;100370.60;;;15.30
66372;BMP180;53168;51.146;17.120;2022-07-10T04:14:26;100370.20;;;15.30
66372;BMP180;53168;51.146;17.120;2022-07-10T04:16:59;100366.60;;;15.40
66372;BMP180;53168;51.146;17.120;2022-07-10T04:19:32;100368.80;;;15.40
66372;BMP180;53168;51.146;17.120;2022-07-10T04:22:06;100368.80;;;15.44
66372;BMP180;53168;51.146;17.120;2022-07-10T04:24:39;100370.00;;;15.50
66372;BMP180;53168;51.146;17.120;2022-07-10T04:27:13;100369.80;;;15.52
66372;BMP180;53168;51.146;17.120;2022-07-10T04:29:49;100365.40;;;15.60
66372;BMP180;53168;51.146;17.120;2022-07-10T04:32:22;100366.80;;;15.70
66372;BMP180;53168;51.146;17.120;2022-07-10T04:34:55;100362.40;;;15.70
66372;BMP180;53168;51.146;17.120;2022-07-10T04:37:29;100357.20;;;15.70
66372;BMP180;53168;51.146;17.120;2022-07-10T04:40:02;100358.20;;;15.80
66372;BMP180;53168;51.146;17.120;2022-07-10T04:42:37;100363.20;;;15.80
66372;BMP180;53168;51.146;17.120;2022-07-10T04:45:11;100360.60;;;15.90
66372;BMP180;53168;51.146;17.120;2022-07-10T04:47:44;100358.20;;;16.10
66372;BMP180;53168;51.146;17.120;2022-07-10T04:50:18;100356.00;;;16.20
66372;BMP180;53168;51.146;17.120;2022-07-10T04:52:51;100357.80;;;16.20
66372;BMP180;53168;51.146;17.120;2022-07-10T04:55:25;100360.20;;;16.20
66372;BMP180;53168;51.146;17.120;2022-07-10T04:57:59;100365.00;;;16.30
66372;BMP180;53168;51.146;17.120;2022-07-10T05:00:32;100363.20;;;16.40
66372;BMP180;53168;51.146;17.120;2022-07-10T05:03:05;100364.20;;;16.40
66372;BMP180;53168;51.146;17.120;2022-07-10T05:05:39;100362.60;;;16.40
66372;BMP180;53168;51.146;17.120;2022-07-10T05:08:13;100361.00;;;16.50
66372;BMP180;53168;51.146;17.120;2022-07-10T05:10:46;100359.80;;;16.50
66372;BMP180;53168;51.146;17.120;2022-07-10T05:13:19;100361.20;;;16.58
66372;BMP180;53168;51.146;17.120;2022-07-10T05:15:52;100359.40;;;16.50
66372;BMP180;53168;51.146;17.120;2022-07-10T05:18:28;100359.40;;;16.60
66372;BMP180;53168;51.146;17.120;2022-07-10T05:21:01;100357.00;;;16.66
66372;BMP180;53168;51.146;17.120;2022-07-10T05:23:34;100353.40;;;16.70
66372;BMP180;53168;51.146;17.120;2022-07-10T05:26:08;100354.20;;;16.70
66372;BMP180;53168;51.146;17.120;2022-07-10T05:28:42;100362.60;;;16.66
66372;BMP180;53168;51.146;17.120;2022-07-10T05:31:15;100367.00;;;16.60
66372;BMP180;53168;51.146;17.120;2022-07-10T05:33:49;100361.80;;;16.60
66372;BMP180;53168;51.146;17.120;2022-07-10T05:36:22;100355.00;;;16.60
66372;BMP180;53168;51.146;17.120;2022-07-10T05:38:56;100355.60;;;16.60
66372;BMP180;53168;51.146;17.120;2022-07-10T05:41:29;100357.00;;;16.70
66372;BMP180;53168;51.146;17.120;2022-07-10T05:44:05;100354.40;;;16.80
66372;BMP180;53168;51.146;17.120;2022-07-10T05:46:38;100356.80;;;16.90
66372;BMP180;53168;51.146;17.120;2022-07-10T05:49:12;100365.40;;;17.00
66372;BMP180;53168;51.146;17.120;2022-07-10T05:51:45;100362.60;;;17.18
66372;BMP180;53168;51.146;17.120;2022-07-10T05:54:18;100363.20;;;17.20
66372;BMP180;53168;51.146;17.120;2022-07-10T05:56:51;100358.60;;;17.30
66372;BMP180;53168;51.146;17.120;2022-07-10T05:59:27;100366.20;;;17.30
66372;BMP180;53168;51.146;17.120;2022-07-10T06:02:00;100362.60;;;17.30
66372;BMP180;53168;51.146;17.120;2022-07-10T06:04:34;100358.80;;;17.30
66372;BMP180;53168;51.146;17.120;2022-07-10T06:07:08;100354.80;;;17.40
66372;BMP180;53168;51.146;17.120;2022-07-10T06:09:42;100351.00;;;17.50
66372;BMP180;53168;51.146;17.120;2022-07-10T06:12:15;100357.20;;;17.60
66372;BMP180;53168;51.146;17.120;2022-07-10T06:14:48;100358.20;;;17.70
66372;BMP180;53168;51.146;17.120;2022-07-10T06:17:22;100363.20;;;17.74
66372;BMP180;53168;51.146;17.120;2022-07-10T06:19:55;100360.80;;;17.90
66372;BMP180;53168;51.146;17.120;2022-07-10T06:22:28;100365.80;;;17.90
66372;BMP180;53168;51.146;17.120;2022-07-10T06:25:08;100357.60;;;17.90
66372;BMP180;53168;51.146;17.120;2022-07-10T06:27:41;100360.80;;;17.80
66372;BMP180;53168;51.146;17.120;2022-07-10T06:30:15;100363.80;;;17.80
66372;BMP180;53168;51.146;17.120;2022-07-10T06:32:48;100361.20;;;17.90
66372;BMP180;53168;51.146;17.120;2022-07-10T06:35:21;100362.60;;;17.90
66372;BMP180;53168;51.146;17.120;2022-07-10T06:37:54;100362.00;;;18.00
66372;BMP180;53168;51.146;17.120;2022-07-10T06:40:30;100363.00;;;18.00
66372;BMP180;53168;51.146;17.120;2022-07-10T06:43:05;100357.40;;;18.02
66372;BMP180;53168;51.146;17.120;2022-07-10T06:45:38;100355.40;;;18.10
66372;BMP180;53168;51.146;17.120;2022-07-10T06:48:13;100355.40;;;18.10
66372;BMP180;53168;51.146;17.120;2022-07-10T06:50:47;100357.40;;;18.14
66372;BMP180;53168;51.146;17.120;2022-07-10T06:53:20;100356.00;;;18.20
66372;BMP180;53168;51.146;17.120;2022-07-10T06:55:56;100354.60;;;18.30
66372;BMP180;53168;51.146;17.120;2022-07-10T06:58:31;100354.60;;;18.40
66372;BMP180;53168;51.146;17.120;2022-07-10T07:01:05;100351.60;;;18.50
66372;BMP180;53168;51.146;17.120;2022-07-10T07:03:40;100345.40;;;18.54
66372;BMP180;53168;51.146;17.120;2022-07-10T07:06:13;100347.20;;;18.60
66372;BMP180;53168;51.146;17.120;2022-07-10T07:08:49;100346.20;;;18.70
66372;BMP180;53168;51.146;17.120;2022-07-10T07:11:24;100354.20;;;18.80
66372;BMP180;53168;51.146;17.120;2022-07-10T07:13:58;100350.40;;;18.80
66372;BMP180;53168;51.146;17.120;2022-07-10T07:16:31;100358.00;;;18.66
66372;BMP180;53168;51.146;17.120;2022-07-10T07:19:14;100363.20;;;18.50
66372;BMP180;53168;51.146;17.120;2022-07-10T07:21:50;100360.80;;;18.50
66372;BMP180;53168;51.146;17.120;2022-07-10T07:24:42;100364.80;;;18.40
66372;BMP180;53168;51.146;17.120;2022-07-10T07:27:16;100363.20;;;18.20
66372;BMP180;53168;51.146;17.120;2022-07-10T07:29:49;100365.60;;;18.10
66372;BMP180;53168;51.146;17.120;2022-07-10T07:32:22;100355.60;;;18.10
66372;BMP180;53168;51.146;17.120;2022-07-10T07:34:57;100363.20;;;18.10
66372;BMP180;53168;51.146;17.120;2022-07-10T07:37:42;100363.20;;;18.00
66372;BMP180;53168;51.146;17.120;2022-07-10T07:40:21;100360.40;;;18.10
66372;BMP180;53168;51.146;17.120;2022-07-10T07:42:56;100359.80;;;18.10
66372;BMP180;53168;51.146;17.120;2022-07-10T07:45:30;100357.80;;;18.20
66372;BMP180;53168;51.146;17.120;2022-07-10T07:48:03;100356.80;;;18.30
66372;BMP180;53168;51.146;17.120;2022-07-10T07:50:38;100360.60;;;18.50
66372;BMP180;53168;51.146;17.120;2022-07-10T07:53:11;100360.40;;;18.70
66372;BMP180;53168;51.146;17.120;2022-07-10T07:55:45;100355.60;;;18.80
66372;BMP180;53168;51.146;17.120;2022-07-10T07:58:19;100361.60;;;18.90
66372;BMP180;53168;51.146;17.120;2022-07-10T08:00:52;100365.20;;;18.88
66372;BMP180;53168;51.146;17.120;2022-07-10T08:03:26;100357.40;;;18.90
66372;BMP180;53168;51.146;17.120;2022-07-10T08:06:18;100362.80;;;19.02
66372;BMP180;53168;51.146;17.120;2022-07-10T08:08:51;100356.40;;;19.20
66372;BMP180;53168;51.146;17.120;2022-07-10T08:11:24;100357.80;;;19.30
66372;BMP180;53168;51.146;17.120;2022-07-10T08:13:57;100359.80;;;19.40
66372;BMP180;53168;51.146;17.120;2022-07-10T08:16:31;100361.80;;;19.60
66372;BMP180;53168;51.146;17.120;2022-07-10T08:19:04;100359.60;;;19.70
66372;BMP180;53168;51.146;17.120;2022-07-10T08:21:38;100359.00;;;19.70
66372;BMP180;53168;51.146;17.120;2022-07-10T08:24:11;100366.00;;;19.70
66372;BMP180;53168;51.146;17.120;2022-07-10T08:26:46;100358.20;;;19.72
66372;BMP180;53168;51.146;17.120;2022-07-10T08:29:20;100352.80;;;19.86
66372;BMP180;53168;51.146;17.120;2022-07-10T08:31:54;100364.00;;;20.10
66372;BMP180;53168;51.146;17.120;2022-07-10T08:34:27;100356.60;;;20.10
66372;BMP180;53168;51.146;17.120;2022-07-10T08:37:01;100360.80;;;19.92
66372;BMP180;53168;51.146;17.120;2022-07-10T08:39:34;100364.20;;;19.70
66372;BMP180;53168;51.146;17.120;2022-07-10T08:42:11;100369.40;;;19.40
66372;BMP180;53168;51.146;17.120;2022-07-10T08:44:45;100386.00;;;18.98
66372;BMP180;53168;51.146;17.120;2022-07-10T08:47:22;100386.40;;;18.44
66372;BMP180;53168;51.146;17.120;2022-07-10T08:49:58;100381.60;;;17.90
66372;BMP180;53168;51.146;17.120;2022-07-10T08:52:41;100383.20;;;17.50
66372;BMP180;53168;51.146;17.120;2022-07-10T08:55:17;100379.00;;;17.20
66372;BMP180;53168;51.146;17.120;2022-07-10T08:57:52;100373.40;;;17.20
66372;BMP180;53168;51.146;17.120;2022-07-10T09:00:27;100376.60;;;17.30
66372;BMP180;53168;51.146;17.120;2022-07-10T09:03:00;100375.20;;;17.56
66372;BMP180;53168;51.146;17.120;2022-07-10T09:05:34;100371.60;;;17.76
66372;BMP180;53168;51.146;17.120;2022-07-10T09:08:25;100371.80;;;17.98
66372;BMP180;53168;51.146;17.120;2022-07-10T09:11:17;100381.00;;;18.28
66372;BMP180;53168;51.146;17.120;2022-07-10T09:13:57;100378.40;;;18.48
66372;BMP180;53168;51.146;17.120;2022-07-10T09:16:34;100376.40;;;18.58
66372;BMP180;53168;51.146;17.120;2022-07-10T09:19:23;100376.20;;;18.50
66372;BMP180;53168;51.146;17.120;2022-07-10T09:22:04;100376.00;;;18.40
66372;BMP180;53168;51.146;17.120;2022-07-10T09:24:42;100368.40;;;18.50
66372;BMP180;53168;51.146;17.120;2022-07-10T09:27:18;100361.60;;;18.78
66372;BMP180;53168;51.146;17.120;2022-07-10T09:29:54;100357.80;;;18.96
66372;BMP180;53168;51.146;17.120;2022-07-10T09:32:31;100355.20;;;19.08
66372;BMP180;53168;51.146;17.120;2022-07-10T09:35:11;100358.20;;;19.10
66372;BMP180;53168;51.146;17.120;2022-07-10T09:38:02;100357.20;;;19.26
66372;BMP180;53168;51.146;17.120;2022-07-10T09:40:35;100353.80;;;19.32
66372;BMP180;53168;51.146;17.120;2022-07-10T09:43:08;100358.60;;;19.50
66372;BMP180;53168;51.146;17.120;2022-07-10T09:45:42;100362.80;;;19.60
66372;BMP180;53168;51.146;17.120;2022-07-10T09:48:15;100376.00;;;19.70
66372;BMP180;53168;51.146;17.120;2022-07-10T09:50:56;100379.20;;;19.60
66372;BMP180;53168;51.146;17.120;2022-07-10T09:53:31;100375.00;;;19.52
66372;BMP180;53168;51.146;17.120;2022-07-10T09:56:07;100374.20;;;19.50
66372;BMP180;53168;51.146;17.120;2022-07-10T09:58:42;100376.80;;;19.46
66372;BMP180;53168;51.146;17.120;2022-07-10T10:01:18;100373.40;;;19.50
66372;BMP180;53168;51.146;17.120;2022-07-10T10:03:59;100375.00;;;19.50
66372;BMP180;53168;51.146;17.120;2022-07-10T10:06:35;100371.80;;;19.30
66372;BMP180;53168;51.146;17.120;2022-07-10T10:09:15;100371.00;;;19.20
66372;BMP180;53168;51.146;17.120;2022-07-10T10:11:57;100369.20;;;19.28
66372;BMP180;53168;51.146;17.120;2022-07-10T10:14:37;100370.40;;;19.40
66372;BMP180;53168;51.146;17.120;2022-07-10T10:17:22;100364.60;;;19.60
66372;BMP180;53168;51.146;17.120;2022-07-10T10:19:57;100362.60;;;19.82
66372;BMP180;53168;51.146;17.120;2022-07-10T10:22:50;100363.60;;;20.10
66372;BMP180;53168;51.146;17.120;2022-07-10T10:25:29;100364.00;;;20.34
66372;BMP180;53168;51.146;17.120;2022-07-10T10:28:09;100362.40;;;20.60
66372;BMP180;53168;51.146;17.120;2022-07-10T10:30:49;100356.60;;;20.76
66372;BMP180;53168;51.146;17.120;2022-07-10T10:33:47;100354.00;;;20.70
66372;BMP180;53168;51.146;17.120;2022-07-10T10:36:49;100356.00;;;20.60
66372;BMP180;53168;51.146;17.120;2022-07-10T10:39:24;100347.00;;;20.70
66372;BMP180;53168;51.146;17.120;2022-07-10T10:41:58;100354.40;;;20.80
66372;BMP180;53168;51.146;17.120;2022-07-10T10:44:32;100345.20;;;20.80
66372;BMP180;53168;51.146;17.120;2022-07-10T10:47:07;100347.00;;;20.90
66372;BMP180;53168;51.146;17.120;2022-07-10T10:49:57;100357.20;;;20.90
66372;BMP180;53168;51.146;17.120;2022-07-10T10:52:38;100341.60;;;21.00
66372;BMP180;53168;51.146;17.120;2022-07-10T10:55:36;100345.40;;;21.28
66372;BMP180;53168;51.146;17.120;2022-07-10T10:58:26;100333.00;;;21.36
66372;BMP180;53168;51.146;17.120;2022-07-10T11:01:25;100332.20;;;21.22
66372;BMP180;53168;51.146;17.120;2022-07-10T11:04:19;100330.60;;;21.26
66372;BMP180;53168;51.146;17.120;2022-07-10T11:06:54;100325.20;;;21.40
66372;BMP180;53168;51.146;17.120;2022-07-10T11:09:32;100329.80;;;21.50
66372;BMP180;53168;51.146;17.120;2022-07-10T11:12:09;100330.60;;;21.40
66372;BMP180;53168;51.146;17.120;2022-07-10T11:14:49;100337.60;;;21.30
66372;BMP180;53168;51.146;17.120;2022-07-10T11:17:29;100333.60;;;21.20
66372;BMP180;53168;51.146;17.120;2022-07-10T11:20:07;100339.80;;;21.10
66372;BMP180;53168;51.146;17.120;2022-07-10T11:26:02;100329.00;;;21.30
66372;BMP180;53168;51.146;17.120;2022-07-10T11:28:55;100323.00;;;21.40
66372;BMP180;53168;51.146;17.120;2022-07-10T11:31:32;100326.20;;;21.60
66372;BMP180;53168;51.146;17.120;2022-07-10T11:34:13;100328.00;;;21.96
66372;BMP180;53168;51.146;17.120;2022-07-10T11:36:48;100325.80;;;22.10
66372;BMP180;53168;51.146;17.120;2022-07-10T11:39:21;100335.40;;;22.10
66372;BMP180;53168;51.146;17.120;2022-07-10T11:41:58;100331.20;;;21.80
66372;BMP180;53168;51.146;17.120;2022-07-10T11:44:32;100332.60;;;21.50
66372;BMP180;53168;51.146;17.120;2022-07-10T11:47:11;100339.00;;;21.20
66372;BMP180;53168;51.146;17.120;2022-07-10T11:49:49;100337.60;;;20.90
66372;BMP180;53168;51.146;17.120;2022-07-10T11:52:22;100337.80;;;20.60
66372;BMP180;53168;51.146;17.120;2022-07-10T11:54:57;100339.60;;;20.50
66372;BMP180;53168;51.146;17.120;2022-07-10T11:57:41;100338.00;;;20.50
66372;BMP180;53168;51.146;17.120;2022-07-10T12:00:29;100342.20;;;20.60
66372;BMP180;53168;51.146;17.120;2022-07-10T12:03:20;100340.80;;;20.70
66372;BMP180;53168;51.146;17.120;2022-07-10T12:06:07;100345.20;;;20.70
66372;BMP180;53168;51.146;17.120;2022-07-10T12:08:47;100349.00;;;20.70
66372;BMP180;53168;51.146;17.120;2022-07-10T12:11:23;100345.40;;;20.80
66372;BMP180;53168;51.146;17.120;2022-07-10T12:14:11;100345.40;;;20.90
66372;BMP180;53168;51.146;17.120;2022-07-10T12:16:48;100347.20;;;21.32
66372;BMP180;53168;51.146;17.120;2022-07-10T12:19:28;100340.80;;;21.92
66372;BMP180;53168;51.146;17.120;2022-07-10T12:22:04;100342.20;;;22.62
66372;BMP180;53168;51.146;17.120;2022-07-10T12:24:38;100348.80;;;23.50
66372;BMP180;53168;51.146;17.120;2022-07-10T12:27:11;100337.20;;;23.70
66372;BMP180;53168;51.146;17.120;2022-07-10T12:30:01;100342.00;;;23.70
66372;BMP180;53168;51.146;17.120;2022-07-10T12:32:35;100353.60;;;23.52
66372;BMP180;53168;51.146;17.120;2022-07-10T12:35:09;100363.40;;;23.30
66372;BMP180;53168;51.146;17.120;2022-07-10T12:37:56;100360.20;;;23.20
66372;BMP180;53168;51.146;17.120;2022-07-10T12:40:39;100360.60;;;23.10
66372;BMP180;53168;51.146;17.120;2022-07-10T12:43:12;100362.00;;;23.00
66372;BMP180;53168;51.146;17.120;2022-07-10T12:46:08;100374.80;;;22.90
66372;BMP180;53168;51.146;17.120;2022-07-10T12:48:43;100380.80;;;22.40
66372;BMP180;53168;51.146;17.120;2022-07-10T12:51:26;100378.80;;;21.82
66372;BMP180;53168;51.146;17.120;2022-07-10T12:54:37;100384.60;;;21.20
66372;BMP180;53168;51.146;17.120;2022-07-10T12:57:10;100389.20;;;20.76
66372;BMP180;53168;51.146;17.120;2022-07-10T12:59:44;100389.40;;;20.40
66372;BMP180;53168;51.146;17.120;2022-07-10T13:02:20;100387.00;;;19.92
66372;BMP180;53168;51.146;17.120;2022-07-10T13:04:58;100384.60;;;19.60
66372;BMP180;53168;51.146;17.120;2022-07-10T13:07:36;100394.00;;;19.50
66372;BMP180;53168;51.146;17.120;2022-07-10T13:10:11;100387.20;;;19.60
66372;BMP180;53168;51.146;17.120;2022-07-10T13:12:44;100386.60;;;20.04
66372;BMP180;53168;51.146;17.120;2022-07-10T13:15:17;100385.60;;;20.20
66372;BMP180;53168;51.146;17.120;2022-07-10T13:17:57;100376.60;;;20.50
66372;BMP180;53168;51.146;17.120;2022-07-10T13:20:30;100377.80;;;20.80
66372;BMP180;53168;51.146;17.120;2022-07-10T13:23:04;100371.20;;;21.04
66372;BMP180;53168;51.146;17.120;2022-07-10T13:25:37;100368.80;;;21.42
66372;BMP180;53168;51.146;17.120;2022-07-10T13:28:14;100361.60;;;21.80
66372;BMP180;53168;51.146;17.120;2022-07-10T13:30:48;100342.20;;;22.64
66372;BMP180;53168;51.146;17.120;2022-07-10T13:33:22;100361.80;;;24.16
66372;BMP180;53168;51.146;17.120;2022-07-10T13:35:59;100351.60;;;24.30
66372;BMP180;53168;51.146;17.120;2022-07-10T13:38:33;100351.40;;;24.30
66372;BMP180;53168;51.146;17.120;2022-07-10T13:41:07;100357.00;;;24.20
66372;BMP180;53168;51.146;17.120;2022-07-10T13:43:41;100348.20;;;24.22
66372;BMP180;53168;51.146;17.120;2022-07-10T13:46:14;100345.80;;;24.40
66372;BMP180;53168;51.146;17.120;2022-07-10T13:48:47;100343.20;;;24.60
66372;BMP180;53168;51.146;17.120;2022-07-10T13:51:21;100344.60;;;24.70
66372;BMP180;53168;51.146;17.120;2022-07-10T13:53:54;100340.40;;;24.70
66372;BMP180;53168;51.146;17.120;2022-07-10T13:56:28;100330.80;;;24.94
66372;BMP180;53168;51.146;17.120;2022-07-10T13:59:02;100333.80;;;26.12
66372;BMP180;53168;51.146;17.120;2022-07-10T14:01:36;100303.20;;;26.84
66372;BMP180;53168;51.146;17.120;2022-07-10T14:04:09;100307.60;;;28.72
66372;BMP180;53168;51.146;17.120;2022-07-10T14:06:43;100310.20;;;30.22
66372;BMP180;53168;51.146;17.120;2022-07-10T14:09:16;100303.60;;;31.66
66372;BMP180;53168;51.146;17.120;2022-07-10T14:11:50;100307.60;;;32.76
66372;BMP180;53168;51.146;17.120;2022-07-10T14:14:23;100305.80;;;33.58
66372;BMP180;53168;51.146;17.120;2022-07-10T14:16:57;100313.00;;;34.52
66372;BMP180;53168;51.146;17.120;2022-07-10T14:19:30;100311.80;;;35.34
66372;BMP180;53168;51.146;17.120;2022-07-10T14:22:04;100336.60;;;35.08
66372;BMP180;53168;51.146;17.120;2022-07-10T14:24:37;100339.80;;;33.20
66372;BMP180;53168;51.146;17.120;2022-07-10T14:27:11;100339.40;;;31.50
66372;BMP180;53168;51.146;17.120;2022-07-10T14:29:45;100321.60;;;30.62
66372;BMP180;53168;51.146;17.120;2022-07-10T14:32:18;100344.20;;;30.16
66372;BMP180;53168;51.146;17.120;2022-07-10T14:34:51;100347.00;;;29.36
66372;BMP180;53168;51.146;17.120;2022-07-10T14:37:25;100358.40;;;28.36